Ashby, Massachusetts
Current Conditions -  °F | °C
As of 6:52 PM on Saturday 25 Oct 2014 (Local Time) from KFIT Reporting Station
Clear Clear  
Wind Chill: 12°   Ceiling: Unl
Heat Index: 12°   Visibility: 10mi
Dew Point:   Wind: 0mph
Humidity: 69%   Direction: NA
Pressure: 29.6"   Gusts: NA
Location:  42.68°N, 71.82°W
Report Text: KFIT 252252Z AUTO 00000KT 10SM CLR 12/07 A2960 RMK AO2 SLP025 T01220067
Loading
Personal Weather Stations






























Interactive Weather Map
Tropical Storm Tracking
New forecast layout! Learn more

10-Day Weather Forecast

Advertisements
Track Severe Weather on mobile